createdAt,value
2023-01-08T00:00:56.024Z,9.77
2023-01-08T00:01:55.934Z,9.65
2023-01-08T00:02:56.099Z,9.66
2023-01-08T00:03:56.039Z,9.74
2023-01-08T00:04:55.914Z,9.62
2023-01-08T00:05:55.882Z,9.72
2023-01-08T00:06:55.894Z,9.66
2023-01-08T00:07:55.897Z,9.73
2023-01-08T00:08:55.906Z,9.65
2023-01-08T00:09:55.861Z,9.65
2023-01-08T00:10:55.866Z,9.68
2023-01-08T00:11:55.844Z,9.66
2023-01-08T00:12:55.840Z,9.54
2023-01-08T00:13:55.925Z,9.61
2023-01-08T00:14:55.857Z,9.62
2023-01-08T00:15:55.888Z,9.61
2023-01-08T00:16:55.871Z,9.54
2023-01-08T00:17:55.809Z,9.65
2023-01-08T00:18:55.810Z,9.61
2023-01-08T00:19:55.748Z,9.58
2023-01-08T00:20:55.790Z,9.61
2023-01-08T00:21:55.724Z,9.69
2023-01-08T00:22:55.845Z,9.56
2023-01-08T00:23:55.708Z,9.55
2023-01-08T00:24:55.782Z,9.64
2023-01-08T00:25:55.692Z,9.61
2023-01-08T00:26:55.682Z,9.64
2023-01-08T00:27:55.671Z,9.56
2023-01-08T00:28:55.663Z,9.64
2023-01-08T00:29:55.784Z,9.59
2023-01-08T00:30:55.740Z,9.55
2023-01-08T00:31:55.610Z,9.55
2023-01-08T00:32:55.681Z,9.55
2023-01-08T00:33:55.594Z,9.56
2023-01-08T00:34:55.599Z,9.58
2023-01-08T00:35:55.570Z,9.46
2023-01-08T00:36:55.577Z,9.46
2023-01-08T00:37:55.554Z,9.43
2023-01-08T00:38:55.551Z,9.41
2023-01-08T00:39:55.529Z,9.43
2023-01-08T00:40:55.540Z,9.43
2023-01-08T00:41:55.526Z,9.41
2023-01-08T00:42:55.491Z,9.50
2023-01-08T00:43:55.492Z,9.51
2023-01-08T00:44:55.476Z,9.46
2023-01-08T00:45:55.693Z,9.46
2023-01-08T00:46:55.480Z,9.39
2023-01-08T00:47:55.461Z,9.44
2023-01-08T00:48:55.437Z,9.43
2023-01-08T00:49:55.420Z,9.55
2023-01-08T00:50:55.413Z,9.50
2023-01-08T00:51:55.398Z,9.48
2023-01-08T00:52:55.384Z,9.46
2023-01-08T00:53:55.403Z,9.41
2023-01-08T00:54:55.395Z,9.36
2023-01-08T00:55:55.347Z,9.28
2023-01-08T00:56:55.353Z,9.25
2023-01-08T00:57:55.327Z,9.23
2023-01-08T00:58:55.359Z,9.31
2023-01-08T00:59:55.335Z,9.25
2023-01-08T01:00:55.350Z,9.32
2023-01-08T01:01:55.490Z,9.29
2023-01-08T01:02:55.377Z,9.26
2023-01-08T01:03:55.361Z,9.32
2023-01-08T01:04:55.258Z,9.26
2023-01-08T01:05:55.255Z,9.28
2023-01-08T01:06:55.225Z,9.31
2023-01-08T01:07:55.216Z,9.34
2023-01-08T01:08:55.239Z,9.25
2023-01-08T01:09:55.207Z,9.22
2023-01-08T01:10:55.184Z,9.22
2023-01-08T01:11:55.171Z,9.23
2023-01-08T01:12:55.165Z,9.31
2023-01-08T01:13:55.163Z,9.23
2023-01-08T01:14:55.134Z,9.26
2023-01-08T01:15:55.146Z,9.25
2023-01-08T01:16:55.208Z,9.25
2023-01-08T01:17:55.233Z,9.21
2023-01-08T01:18:55.136Z,9.23
2023-01-08T01:19:55.087Z,9.18
2023-01-08T01:20:55.135Z,9.19
2023-01-08T01:21:55.095Z,9.18
2023-01-08T01:22:55.078Z,9.13
2023-01-08T01:23:55.065Z,9.16
2023-01-08T01:24:55.060Z,9.19
2023-01-08T01:25:55.062Z,9.14
2023-01-08T01:26:55.039Z,9.14
2023-01-08T01:27:55.019Z,9.02
2023-01-08T01:28:54.989Z,9.03
2023-01-08T01:29:54.976Z,9.06
2023-01-08T01:30:55.037Z,9.00
2023-01-08T01:31:54.985Z,8.91
2023-01-08T01:32:54.956Z,8.94
2023-01-08T01:33:55.064Z,9.04
2023-01-08T01:34:54.937Z,8.82
2023-01-08T01:35:54.913Z,8.87
2023-01-08T01:36:54.898Z,8.82
2023-01-08T01:37:54.893Z,8.84
2023-01-08T01:38:54.925Z,8.84
2023-01-08T01:39:54.869Z,8.84
2023-01-08T01:40:54.875Z,8.84
2023-01-08T01:41:54.847Z,8.84
2023-01-08T01:42:54.846Z,8.88
2023-01-08T01:43:54.829Z,8.84
2023-01-08T01:44:54.839Z,8.82
2023-01-08T01:45:54.876Z,8.84
2023-01-08T01:47:03.903Z,8.79
2023-01-08T01:47:54.778Z,8.89
2023-01-08T01:48:54.766Z,8.66
2023-01-08T01:49:54.884Z,8.76
2023-01-08T01:50:54.740Z,8.82
2023-01-08T01:51:54.728Z,8.78
2023-01-08T01:52:54.717Z,8.79
2023-01-08T01:53:54.724Z,8.76
2023-01-08T01:54:54.707Z,8.69
2023-01-08T01:55:54.692Z,8.73
2023-01-08T01:56:54.688Z,8.78
2023-01-08T01:57:54.693Z,8.73
2023-01-08T01:58:54.656Z,8.73
2023-01-08T01:59:54.645Z,8.73
2023-01-08T02:00:54.670Z,8.70
2023-01-08T02:01:54.715Z,8.73
2023-01-08T02:02:54.616Z,8.73
2023-01-08T02:03:54.696Z,8.73
2023-01-08T02:04:54.584Z,8.66
2023-01-08T02:05:54.719Z,8.69
2023-01-08T02:06:54.581Z,8.66
2023-01-08T02:07:54.555Z,8.66
2023-01-08T02:08:54.555Z,8.70
2023-01-08T02:09:54.545Z,8.73
2023-01-08T02:10:54.575Z,8.74
2023-01-08T02:11:54.523Z,8.73
2023-01-08T02:12:54.521Z,8.69
2023-01-08T02:13:54.488Z,8.69
2023-01-08T02:14:54.477Z,8.64
2023-01-08T02:15:54.464Z,8.74
2023-01-08T02:16:54.510Z,8.66
2023-01-08T02:17:54.460Z,8.74
2023-01-08T02:18:54.445Z,8.71
2023-01-08T02:19:54.423Z,8.70
2023-01-08T02:20:54.420Z,8.70
2023-01-08T02:21:54.543Z,8.67
2023-01-08T02:22:54.412Z,8.67
2023-01-08T02:23:54.399Z,8.64
2023-01-08T02:24:54.384Z,8.71
2023-01-08T02:25:54.367Z,8.71
2023-01-08T02:26:54.358Z,8.71
2023-01-08T02:27:54.355Z,8.63
2023-01-08T02:28:54.359Z,8.61
2023-01-08T02:29:54.323Z,8.52
2023-01-08T02:30:54.364Z,8.61
2023-01-08T02:31:54.302Z,8.56
2023-01-08T02:32:54.281Z,8.53
2023-01-08T02:33:54.276Z,8.61
2023-01-08T02:34:54.287Z,8.49
2023-01-08T02:35:54.248Z,8.46
2023-01-08T02:36:54.237Z,8.42
2023-01-08T02:37:54.346Z,8.42
2023-01-08T02:38:54.235Z,8.42
2023-01-08T02:39:54.234Z,8.44
2023-01-08T02:40:54.200Z,8.37
2023-01-08T02:41:54.193Z,8.48
2023-01-08T02:42:54.170Z,8.49
2023-01-08T02:43:54.166Z,8.45
2023-01-08T02:44:54.182Z,8.56
2023-01-08T02:45:54.212Z,8.44
2023-01-08T02:46:54.131Z,8.46
2023-01-08T02:47:54.137Z,8.38
2023-01-08T02:48:54.105Z,8.46
2023-01-08T02:49:54.138Z,8.41
2023-01-08T02:50:54.093Z,8.36
2023-01-08T02:51:54.075Z,8.41
2023-01-08T02:52:54.076Z,8.38
2023-01-08T02:53:54.176Z,8.36
2023-01-08T02:54:54.045Z,8.30
2023-01-08T02:55:54.056Z,8.38
2023-01-08T02:56:54.019Z,8.37
2023-01-08T02:57:54.028Z,8.30
2023-01-08T02:58:54.037Z,8.38
2023-01-08T02:59:53.988Z,8.38
2023-01-08T03:00:54.011Z,8.33
2023-01-08T03:01:54.164Z,8.24
2023-01-08T03:02:53.956Z,8.20
2023-01-08T03:03:54.065Z,8.26
2023-01-08T03:04:53.935Z,8.18
2023-01-08T03:05:53.927Z,8.20
2023-01-08T03:06:53.931Z,8.06
2023-01-08T03:07:53.902Z,8.16
2023-01-08T03:08:53.895Z,8.15
2023-01-08T03:09:54.006Z,8.12
2023-01-08T03:10:53.868Z,8.06
2023-01-08T03:11:53.878Z,8.13
2023-01-08T03:12:53.902Z,8.08
2023-01-08T03:13:53.844Z,8.08
2023-01-08T03:14:53.827Z,8.15
2023-01-08T03:15:53.820Z,8.05
2023-01-08T03:16:53.906Z,8.03
2023-01-08T03:17:53.804Z,8.12
2023-01-08T03:18:53.781Z,8.12
2023-01-08T03:19:53.780Z,8.16
2023-01-08T03:20:53.762Z,8.10
2023-01-08T03:21:53.745Z,8.15
2023-01-08T03:22:53.762Z,8.15
2023-01-08T03:23:53.743Z,8.16
2023-01-08T03:24:53.726Z,8.19
2023-01-08T03:25:53.827Z,8.12
2023-01-08T03:26:53.748Z,8.09
2023-01-08T03:27:53.691Z,8.10
2023-01-08T03:28:53.686Z,8.10
2023-01-08T03:29:53.664Z,8.15
2023-01-08T03:30:53.705Z,8.15
2023-01-08T03:31:53.640Z,8.10
2023-01-08T03:32:53.633Z,8.09
2023-01-08T03:33:53.641Z,7.97
2023-01-08T03:34:53.609Z,8.10
2023-01-08T03:35:53.599Z,8.10
2023-01-08T03:36:53.588Z,8.13
2023-01-08T03:37:53.568Z,8.10
2023-01-08T03:38:53.577Z,8.12
2023-01-08T03:39:53.559Z,8.05
2023-01-08T03:40:53.549Z,8.06
2023-01-08T03:41:53.645Z,8.03
2023-01-08T03:42:53.526Z,8.05
2023-01-08T03:43:53.527Z,8.05
2023-01-08T03:44:53.500Z,8.06
2023-01-08T03:45:53.568Z,8.03
2023-01-08T03:46:53.473Z,8.06
2023-01-08T03:47:53.469Z,8.15
2023-01-08T03:48:53.472Z,8.08
2023-01-08T03:49:53.453Z,8.05
2023-01-08T03:50:53.438Z,8.10
2023-01-08T03:51:53.440Z,8.05
2023-01-08T03:52:53.408Z,8.03
2023-01-08T03:53:53.423Z,8.00
2023-01-08T03:54:53.408Z,8.01
2023-01-08T03:55:53.376Z,7.98
2023-01-08T03:56:53.371Z,8.09
2023-01-08T03:57:53.467Z,8.03
2023-01-08T03:58:53.352Z,8.06
2023-01-08T03:59:53.375Z,8.15
2023-01-08T04:00:53.323Z,8.16
2023-01-08T04:01:53.442Z,8.13
2023-01-08T04:02:53.303Z,8.19
2023-01-08T04:03:53.300Z,8.13
2023-01-08T04:04:53.311Z,8.09
2023-01-08T04:05:53.272Z,8.18
2023-01-08T04:06:53.259Z,8.12
2023-01-08T04:07:53.252Z,8.19
2023-01-08T04:08:53.245Z,8.20
2023-01-08T04:09:53.224Z,8.16
2023-01-08T04:10:53.251Z,8.15
2023-01-08T04:11:53.208Z,8.18
2023-01-08T04:12:53.208Z,8.13
2023-01-08T04:13:53.296Z,8.23
2023-01-08T04:14:53.178Z,8.10
2023-01-08T04:15:53.237Z,8.12
2023-01-08T04:16:53.159Z,8.20
2023-01-08T04:17:53.145Z,8.26
2023-01-08T04:18:53.131Z,8.24
2023-01-08T04:19:53.143Z,8.20
2023-01-08T04:20:53.113Z,8.23
2023-01-08T04:21:53.100Z,8.13
2023-01-08T04:22:53.084Z,8.23
2023-01-08T04:23:53.080Z,8.27
2023-01-08T04:24:53.057Z,8.19
2023-01-08T04:25:53.060Z,8.24
2023-01-08T04:26:53.047Z,8.19
2023-01-08T04:27:53.033Z,8.13
2023-01-08T04:28:53.022Z,8.16
2023-01-08T04:29:53.117Z,8.18
2023-01-08T04:30:53.111Z,8.12
2023-01-08T04:31:52.983Z,8.15
2023-01-08T04:32:52.976Z,8.15
2023-01-08T04:33:52.991Z,8.15
2023-01-08T04:34:52.965Z,8.08
2023-01-08T04:35:52.958Z,8.16
2023-01-08T04:36:52.933Z,8.10
2023-01-08T04:37:52.939Z,8.13
2023-01-08T04:38:52.923Z,8.16
2023-01-08T04:39:52.893Z,8.08
2023-01-08T04:40:52.890Z,8.10
2023-01-08T04:41:52.880Z,8.20
2023-01-08T04:42:52.867Z,8.19
2023-01-08T04:43:52.860Z,8.10
2023-01-08T04:44:52.857Z,8.08
2023-01-08T04:45:53.036Z,8.15
2023-01-08T04:46:52.826Z,8.05
2023-01-08T04:47:52.817Z,8.03
2023-01-08T04:48:52.799Z,8.03
2023-01-08T04:49:52.799Z,8.05
2023-01-08T04:50:52.770Z,8.01
2023-01-08T04:51:52.775Z,8.03
2023-01-08T04:52:52.762Z,8.00
2023-01-08T04:53:52.755Z,8.05
2023-01-08T04:54:52.750Z,8.06
2023-01-08T04:55:52.727Z,8.08
2023-01-08T04:56:52.711Z,8.03
2023-01-08T04:57:52.699Z,8.09
2023-01-08T04:58:52.691Z,8.10
2023-01-08T04:59:52.703Z,8.15
2023-01-08T05:00:52.680Z,8.05
2023-01-08T05:01:52.899Z,8.05
2023-01-08T05:02:52.750Z,8.12
2023-01-08T05:03:52.640Z,8.05
2023-01-08T05:04:52.618Z,8.05
2023-01-08T05:05:52.623Z,8.09
2023-01-08T05:06:52.605Z,8.05
2023-01-08T05:07:52.595Z,8.09
2023-01-08T05:08:52.609Z,8.12
2023-01-08T05:09:52.584Z,8.10
2023-01-08T05:10:52.563Z,8.16
2023-01-08T05:11:52.571Z,8.06
2023-01-08T05:12:52.538Z,8.10
2023-01-08T05:13:52.522Z,8.10
2023-01-08T05:14:52.518Z,8.16
2023-01-08T05:15:52.554Z,8.15
2023-01-08T05:16:52.489Z,8.18
2023-01-08T05:17:52.610Z,8.09
2023-01-08T05:18:52.471Z,8.15
2023-01-08T05:19:52.457Z,8.16
2023-01-08T05:20:52.476Z,8.16
2023-01-08T05:21:52.448Z,8.18
2023-01-08T05:22:52.425Z,8.16
2023-01-08T05:23:52.415Z,8.16
2023-01-08T05:24:52.422Z,8.12
2023-01-08T05:25:52.400Z,8.15
2023-01-08T05:26:52.398Z,8.13
2023-01-08T05:27:52.384Z,8.12
2023-01-08T05:28:52.363Z,8.10
2023-01-08T05:29:52.344Z,8.10
2023-01-08T05:30:52.413Z,8.10
2023-01-08T05:31:52.336Z,8.10
2023-01-08T05:32:52.317Z,8.15
2023-01-08T05:33:52.417Z,8.20
2023-01-08T05:34:52.305Z,8.13
2023-01-08T05:35:52.289Z,8.12
2023-01-08T05:36:52.275Z,8.10
2023-01-08T05:37:52.264Z,8.18
2023-01-08T05:38:52.250Z,8.31
2023-01-08T05:39:52.265Z,8.26
2023-01-08T05:40:52.227Z,8.19
2023-01-08T05:41:52.235Z,8.30
2023-01-08T05:42:52.205Z,8.20
2023-01-08T05:43:52.207Z,8.19
2023-01-08T05:44:52.206Z,8.18
2023-01-08T05:45:52.172Z,8.23
2023-01-08T05:46:52.174Z,8.24
2023-01-08T05:47:52.153Z,8.31
2023-01-08T05:48:52.142Z,8.30
2023-01-08T05:49:52.271Z,8.27
2023-01-08T05:50:52.146Z,8.28
2023-01-08T05:51:52.129Z,8.26
2023-01-08T05:52:52.099Z,8.23
2023-01-08T05:53:52.147Z,8.24
2023-01-08T05:54:52.083Z,8.31
2023-01-08T05:55:52.085Z,8.27
2023-01-08T05:56:52.063Z,8.24
2023-01-08T05:57:52.051Z,8.28
2023-01-08T05:58:52.045Z,8.26
2023-01-08T05:59:52.022Z,8.37
2023-01-08T06:00:52.011Z,8.26
2023-01-08T06:01:52.151Z,8.31
2023-01-08T06:02:52.031Z,8.34
2023-01-08T06:03:52.049Z,8.33
2023-01-08T06:04:51.971Z,8.31
2023-01-08T06:05:52.090Z,8.27
2023-01-08T06:06:51.958Z,8.38
2023-01-08T06:07:51.937Z,8.36
2023-01-08T06:08:51.930Z,8.36
2023-01-08T06:09:51.918Z,8.41
2023-01-08T06:10:51.900Z,8.38
2023-01-08T06:11:51.925Z,8.44
2023-01-08T06:12:51.920Z,8.44
2023-01-08T06:13:51.884Z,8.38
2023-01-08T06:14:51.856Z,8.49
2023-01-08T06:15:51.912Z,8.41
2023-01-08T06:16:51.843Z,8.56
2023-01-08T06:17:51.845Z,8.46
2023-01-08T06:18:51.816Z,8.53
2023-01-08T06:19:51.813Z,8.63
2023-01-08T06:20:51.791Z,8.64
2023-01-08T06:21:51.901Z,8.61
2023-01-08T06:22:51.796Z,8.63
2023-01-08T06:23:51.762Z,8.51
2023-01-08T06:24:51.757Z,8.48
2023-01-08T06:25:51.748Z,8.60
2023-01-08T06:26:51.734Z,8.60
2023-01-08T06:27:51.730Z,8.53
2023-01-08T06:28:51.743Z,8.52
2023-01-08T06:29:51.749Z,8.52
2023-01-08T06:30:51.793Z,8.51
2023-01-08T06:31:51.681Z,8.58
2023-01-08T06:32:51.675Z,8.64
2023-01-08T06:33:51.682Z,8.60
2023-01-08T06:34:51.647Z,8.64
2023-01-08T06:35:51.642Z,8.56
2023-01-08T06:36:51.632Z,8.55
2023-01-08T06:37:51.634Z,8.49
2023-01-08T06:38:51.601Z,8.55
2023-01-08T06:39:51.601Z,8.55
2023-01-08T06:40:51.586Z,8.61
2023-01-08T06:41:51.588Z,8.60
2023-01-08T06:42:51.561Z,8.63
2023-01-08T06:43:51.561Z,8.67
2023-01-08T06:44:51.536Z,8.55
2023-01-08T06:45:51.545Z,8.53
2023-01-08T06:46:51.557Z,8.44
2023-01-08T06:47:51.498Z,8.46
2023-01-08T06:48:51.492Z,8.44
2023-01-08T06:49:51.497Z,8.46
2023-01-08T06:50:51.472Z,8.52
2023-01-08T06:51:51.461Z,8.49
2023-01-08T06:52:51.445Z,8.56
2023-01-08T06:53:51.464Z,8.51
2023-01-08T06:54:51.428Z,8.53
2023-01-08T06:55:51.423Z,8.56
2023-01-08T06:56:53.964Z,8.56
2023-01-08T06:57:51.391Z,8.60
2023-01-08T06:58:51.379Z,8.53
2023-01-08T06:59:51.375Z,8.63
2023-01-08T07:00:51.375Z,8.46
2023-01-08T07:01:51.538Z,8.53
2023-01-08T07:02:51.440Z,8.61
2023-01-08T07:03:51.336Z,8.63
2023-01-08T07:04:51.314Z,8.66
2023-01-08T07:05:51.331Z,8.74
2023-01-08T07:06:51.316Z,8.74
2023-01-08T07:07:51.277Z,8.79
2023-01-08T07:08:51.274Z,8.85
2023-01-08T07:09:51.386Z,8.73
2023-01-08T07:10:51.279Z,8.85
2023-01-08T07:11:51.265Z,8.87
2023-01-08T07:12:51.237Z,8.85
2023-01-08T07:13:51.225Z,8.88
2023-01-08T07:14:51.209Z,8.88
2023-01-08T07:15:51.297Z,8.82
2023-01-08T07:16:51.202Z,8.84
2023-01-08T07:17:51.181Z,8.89
2023-01-08T07:18:51.179Z,8.87
2023-01-08T07:19:51.153Z,8.76
2023-01-08T07:20:51.144Z,8.84
2023-01-08T07:21:51.147Z,8.82
2023-01-08T07:22:51.142Z,8.85
2023-01-08T07:23:51.110Z,8.82
2023-01-08T07:24:51.097Z,8.91
2023-01-08T07:25:51.205Z,8.89
2023-01-08T07:26:51.094Z,9.04
2023-01-08T07:27:51.071Z,9.08
2023-01-08T07:28:51.053Z,9.11
2023-01-08T07:29:51.046Z,9.16
2023-01-08T07:30:51.037Z,9.08
2023-01-08T07:31:51.030Z,9.11
2023-01-08T07:32:51.019Z,9.06
2023-01-08T07:33:51.016Z,9.02
2023-01-08T07:34:50.991Z,9.02
2023-01-08T07:35:50.975Z,8.89
2023-01-08T07:36:50.972Z,8.97
2023-01-08T07:37:50.972Z,8.95
2023-01-08T07:38:50.944Z,9.02
2023-01-08T07:39:50.968Z,8.99
2023-01-08T07:40:50.943Z,8.88
2023-01-08T07:41:51.036Z,8.94
2023-01-08T07:42:50.906Z,8.89
2023-01-08T07:43:50.891Z,8.92
2023-01-08T07:44:51.037Z,8.89
2023-01-08T07:45:50.910Z,8.84
2023-01-08T07:46:50.933Z,8.82
2023-01-08T07:48:00.027Z,8.85
2023-01-08T07:48:50.842Z,8.78
2023-01-08T07:49:50.971Z,8.73
2023-01-08T07:50:50.823Z,8.84
2023-01-08T07:51:50.803Z,8.64
2023-01-08T07:52:50.813Z,8.74
2023-01-08T07:53:50.787Z,8.76
2023-01-08T07:54:50.783Z,8.66
2023-01-08T07:55:50.760Z,8.73
2023-01-08T07:56:50.754Z,8.70
2023-01-08T07:57:50.877Z,8.71
2023-01-08T07:58:50.730Z,8.74
2023-01-08T07:59:50.741Z,8.71
2023-01-08T08:00:50.707Z,8.70
2023-01-08T08:01:50.855Z,8.71
2023-01-08T08:02:50.922Z,8.71
2023-01-08T08:03:50.682Z,8.70
2023-01-08T08:04:50.662Z,8.70
2023-01-08T08:05:50.675Z,8.76
2023-01-08T08:06:50.645Z,8.70
2023-01-08T08:07:50.638Z,8.84
2023-01-08T08:08:50.617Z,8.74
2023-01-08T08:09:50.617Z,8.73
2023-01-08T08:10:50.593Z,8.73
2023-01-08T08:11:50.610Z,8.70
2023-01-08T08:12:50.582Z,8.74
2023-01-08T08:13:52.658Z,8.63
2023-01-08T08:14:50.553Z,8.74
2023-01-08T08:15:50.591Z,8.81
2023-01-08T08:16:50.536Z,8.71
2023-01-08T08:17:50.533Z,8.76
2023-01-08T08:18:50.530Z,8.79
2023-01-08T08:19:50.501Z,8.73
2023-01-08T08:20:50.496Z,8.76
2023-01-08T08:21:50.476Z,8.69
2023-01-08T08:22:50.493Z,8.78
2023-01-08T08:23:50.457Z,8.73
2023-01-08T08:24:50.456Z,8.84
2023-01-08T08:25:50.427Z,8.79
2023-01-08T08:26:50.434Z,8.69
2023-01-08T08:27:50.431Z,8.79
2023-01-08T08:28:50.410Z,8.78
2023-01-08T08:29:50.502Z,8.73
2023-01-08T08:30:50.385Z,8.67
2023-01-08T08:31:50.374Z,8.81
2023-01-08T08:32:50.364Z,8.76
2023-01-08T08:33:50.374Z,8.73
2023-01-08T08:34:50.354Z,8.73
2023-01-08T08:35:50.328Z,8.79
2023-01-08T08:36:50.314Z,8.74
2023-01-08T08:37:50.309Z,8.74
2023-01-08T08:38:50.302Z,8.76
2023-01-08T08:39:50.298Z,8.73
2023-01-08T08:40:50.289Z,8.79
2023-01-08T08:41:50.263Z,8.74
2023-01-08T08:42:50.243Z,8.84
2023-01-08T08:43:50.248Z,8.84
2023-01-08T08:44:50.227Z,8.69
2023-01-08T08:45:50.372Z,8.71
2023-01-08T08:46:50.259Z,8.66
2023-01-08T08:47:50.192Z,8.73
2023-01-08T08:48:50.192Z,8.88
2023-01-08T08:49:50.183Z,8.89
2023-01-08T08:50:50.205Z,8.87
2023-01-08T08:51:50.153Z,8.95
2023-01-08T08:52:50.149Z,8.84
2023-01-08T08:53:50.149Z,8.89
2023-01-08T08:54:50.126Z,8.84
2023-01-08T08:55:50.142Z,8.89
2023-01-08T08:56:50.113Z,8.91
2023-01-08T08:57:50.086Z,8.87
2023-01-08T08:58:50.071Z,8.81
2023-01-08T08:59:50.072Z,8.71
2023-01-08T09:00:50.074Z,8.78
2023-01-08T09:01:50.330Z,8.84
2023-01-08T09:02:50.223Z,8.67
2023-01-08T09:03:50.030Z,8.79
2023-01-08T09:04:50.010Z,8.81
2023-01-08T09:05:50.040Z,8.84
2023-01-08T09:06:49.998Z,8.85
2023-01-08T09:07:49.977Z,8.85
2023-01-08T09:08:49.969Z,8.94
2023-01-08T09:09:49.986Z,8.92
2023-01-08T09:10:49.954Z,8.91
2023-01-08T09:11:49.952Z,8.95
2023-01-08T09:12:49.925Z,9.00
2023-01-08T09:13:49.922Z,8.95
2023-01-08T09:14:49.944Z,9.03
2023-01-08T09:15:49.938Z,9.04
2023-01-08T09:16:49.890Z,9.14
2023-01-08T09:17:49.969Z,9.10
2023-01-08T09:18:49.865Z,9.11
2023-01-08T09:19:49.860Z,9.08
2023-01-08T09:20:49.831Z,9.19
2023-01-08T09:21:49.825Z,9.22
2023-01-08T09:22:49.817Z,9.28
2023-01-08T09:23:49.828Z,9.28
2023-01-08T09:24:49.803Z,9.19
2023-01-08T09:25:49.777Z,9.21
2023-01-08T09:26:49.801Z,9.28
2023-01-08T09:27:49.769Z,9.26
2023-01-08T09:28:49.768Z,9.26
2023-01-08T09:29:49.737Z,9.32
2023-01-08T09:30:49.734Z,9.28
2023-01-08T09:31:49.768Z,9.26
2023-01-08T09:32:49.714Z,9.26
2023-01-08T09:33:49.844Z,9.23
2023-01-08T09:34:49.691Z,9.28
2023-01-08T09:35:49.681Z,9.28
2023-01-08T09:36:49.668Z,9.21
2023-01-08T09:37:49.656Z,9.19
2023-01-08T09:38:49.643Z,9.16
2023-01-08T09:39:57.683Z,9.18
2023-01-08T09:40:50.629Z,9.22
2023-01-08T09:41:49.617Z,9.22
2023-01-08T09:42:49.601Z,9.29
2023-01-08T09:43:49.583Z,9.26
2023-01-08T09:44:49.575Z,9.29
2023-01-08T09:45:49.611Z,9.23
2023-01-08T09:46:49.661Z,9.25
2023-01-08T09:47:49.549Z,9.23
2023-01-08T09:48:49.536Z,9.26
2023-01-08T09:49:49.643Z,9.22
2023-01-08T09:50:49.527Z,9.22
2023-01-08T09:51:49.507Z,9.22
2023-01-08T09:52:49.520Z,9.22
2023-01-08T09:53:49.489Z,9.21
2023-01-08T09:54:49.466Z,9.11
2023-01-08T09:55:53.636Z,9.13
2023-01-08T09:56:50.448Z,9.18
2023-01-08T09:57:49.435Z,9.19
2023-01-08T09:58:49.439Z,9.21
2023-01-08T09:59:49.424Z,9.19
2023-01-08T10:00:49.441Z,9.14
2023-01-08T10:01:49.570Z,9.29
2023-01-08T10:02:49.505Z,9.23
2023-01-08T10:03:49.369Z,9.21
2023-01-08T10:04:49.356Z,9.25
2023-01-08T10:05:49.460Z,9.26
2023-01-08T10:06:49.346Z,9.22
2023-01-08T10:07:49.322Z,9.18
2023-01-08T10:08:49.330Z,9.19
2023-01-08T10:09:49.324Z,9.22
2023-01-08T10:10:49.289Z,9.14
2023-01-08T10:11:49.300Z,9.06
2023-01-08T10:12:49.270Z,9.14
2023-01-08T10:13:49.282Z,9.08
2023-01-08T10:14:49.241Z,9.08
2023-01-08T10:15:49.239Z,9.04
2023-01-08T10:16:49.253Z,9.06
2023-01-08T10:17:49.220Z,9.18
2023-01-08T10:18:49.216Z,9.10
2023-01-08T10:19:49.213Z,9.10
2023-01-08T10:20:49.186Z,9.14
2023-01-08T10:21:49.215Z,9.08
2023-01-08T10:22:49.180Z,9.10
2023-01-08T10:23:49.150Z,9.13
2023-01-08T10:24:49.159Z,9.11
2023-01-08T10:25:49.155Z,9.10
2023-01-08T10:26:49.138Z,9.16
2023-01-08T10:27:49.110Z,9.06
2023-01-08T10:28:49.115Z,9.10
2023-01-08T10:29:49.093Z,9.11
2023-01-08T10:30:49.098Z,9.10
2023-01-08T10:31:49.154Z,9.11
2023-01-08T10:32:49.068Z,9.10
2023-01-08T10:33:49.052Z,9.19
2023-01-08T10:34:49.058Z,9.21
2023-01-08T10:35:49.023Z,9.08
2023-01-08T10:36:49.036Z,9.06
2023-01-08T10:37:49.030Z,9.08
2023-01-08T10:38:48.991Z,9.13
2023-01-08T10:39:48.983Z,9.14
2023-01-08T10:40:48.981Z,8.99
2023-01-08T10:41:48.971Z,8.92
2023-01-08T10:42:48.970Z,8.92
2023-01-08T10:43:48.942Z,8.91
2023-01-08T10:44:48.934Z,8.92
2023-01-08T10:45:48.987Z,8.91
2023-01-08T10:46:48.922Z,8.89
2023-01-08T10:47:48.895Z,8.89
2023-01-08T10:48:48.917Z,8.99
2023-01-08T10:49:48.862Z,9.08
2023-01-08T10:50:48.864Z,9.06
2023-01-08T10:51:48.844Z,9.16
2023-01-08T10:52:48.844Z,9.21
2023-01-08T10:53:48.875Z,9.06
2023-01-08T10:54:48.809Z,8.99
2023-01-08T10:55:48.843Z,8.99
2023-01-08T10:56:48.784Z,9.10
2023-01-08T10:57:48.782Z,9.02
2023-01-08T10:58:48.812Z,9.10
2023-01-08T10:59:48.750Z,8.97
2023-01-08T11:00:48.839Z,9.10
2023-01-08T11:01:48.857Z,9.08
2023-01-08T11:02:48.806Z,9.06
2023-01-08T11:03:48.733Z,9.03
2023-01-08T11:04:48.704Z,9.04
2023-01-08T11:05:48.697Z,9.08
2023-01-08T11:06:48.707Z,9.11
2023-01-08T11:07:48.676Z,9.11
2023-01-08T11:08:50.781Z,9.18
2023-01-08T11:09:48.693Z,9.10
2023-01-08T11:10:48.670Z,9.21
2023-01-08T11:11:48.641Z,9.22
2023-01-08T11:12:48.637Z,9.23
2023-01-08T11:13:48.631Z,9.16
2023-01-08T11:14:50.455Z,9.22
2023-01-08T11:15:48.607Z,9.25
2023-01-08T11:16:48.576Z,9.26
2023-01-08T11:17:48.587Z,9.32
2023-01-08T11:18:48.556Z,9.47
2023-01-08T11:19:48.547Z,9.44
2023-01-08T11:20:48.550Z,9.44
2023-01-08T11:21:48.524Z,9.29
2023-01-08T11:22:48.510Z,9.28
2023-01-08T11:23:48.508Z,9.32
2023-01-08T11:24:48.490Z,9.32
2023-01-08T11:25:48.501Z,9.32
2023-01-08T11:26:48.476Z,9.29
2023-01-08T11:27:48.459Z,9.31
2023-01-08T11:28:48.488Z,9.37
2023-01-08T11:29:48.436Z,9.37
2023-01-08T11:30:48.430Z,9.43
2023-01-08T11:31:48.457Z,9.47
2023-01-08T11:32:48.445Z,9.44
2023-01-08T11:33:48.393Z,9.51
2023-01-08T11:34:48.380Z,9.56
2023-01-08T11:35:48.362Z,9.54
2023-01-08T11:36:48.354Z,9.58
2023-01-08T11:37:48.343Z,9.54
2023-01-08T11:38:48.362Z,9.54
2023-01-08T11:39:48.348Z,9.65
2023-01-08T11:40:48.306Z,9.62
2023-01-08T11:41:48.392Z,9.64
2023-01-08T11:42:48.288Z,9.65
2023-01-08T11:43:48.294Z,9.61
2023-01-08T11:44:48.267Z,9.56
2023-01-08T11:45:48.288Z,9.59
2023-01-08T11:46:48.242Z,9.62
2023-01-08T11:47:48.244Z,9.61
2023-01-08T11:48:48.252Z,9.56
2023-01-08T11:49:48.217Z,9.55
2023-01-08T11:50:48.208Z,9.54
2023-01-08T11:51:48.196Z,9.62
2023-01-08T11:52:48.181Z,9.61
2023-01-08T11:53:48.171Z,9.61
2023-01-08T11:54:48.172Z,9.58
2023-01-08T11:55:48.152Z,9.64
2023-01-08T11:56:48.143Z,9.61
2023-01-08T11:57:48.139Z,9.62
2023-01-08T11:58:48.111Z,9.65
2023-01-08T11:59:48.138Z,9.65
2023-01-08T12:00:48.102Z,9.66
2023-01-08T12:01:48.219Z,9.66
2023-01-08T12:02:48.121Z,9.72
2023-01-08T12:03:48.076Z,9.64
2023-01-08T12:04:48.050Z,9.72
2023-01-08T12:05:48.056Z,9.66
2023-01-08T12:06:48.032Z,9.68
2023-01-08T12:07:48.022Z,9.65
2023-01-08T12:08:48.013Z,9.66
2023-01-08T12:09:47.992Z,9.66
2023-01-08T12:10:48.026Z,9.68
2023-01-08T12:11:47.975Z,9.74
2023-01-08T12:12:47.987Z,9.79
2023-01-08T12:13:47.987Z,9.74
2023-01-08T12:14:47.947Z,9.76
2023-01-08T12:15:47.924Z,9.76
2023-01-08T12:16:47.963Z,9.84
2023-01-08T12:17:47.910Z,9.82
2023-01-08T12:18:47.911Z,9.87
2023-01-08T12:19:47.900Z,9.76
2023-01-08T12:20:47.871Z,9.76
2023-01-08T12:21:47.876Z,9.83
2023-01-08T12:22:47.846Z,9.80
2023-01-08T12:23:47.848Z,9.76
2023-01-08T12:24:47.838Z,9.80
2023-01-08T12:25:47.818Z,9.79
2023-01-08T12:26:47.831Z,9.83
2023-01-08T12:27:56.800Z,9.80
2023-01-08T12:28:48.793Z,9.79
2023-01-08T12:29:47.793Z,9.89
2023-01-08T12:30:47.765Z,9.83
2023-01-08T12:31:57.651Z,9.84
2023-01-08T12:32:48.805Z,9.98
2023-01-08T12:33:47.736Z,9.97
2023-01-08T12:34:47.729Z,9.98
2023-01-08T12:35:47.717Z,9.89
2023-01-08T12:36:47.697Z,9.92
2023-01-08T12:37:47.685Z,9.95
2023-01-08T12:38:47.697Z,9.83
2023-01-08T12:39:47.668Z,9.82
2023-01-08T12:40:47.665Z,9.86
2023-01-08T12:41:47.648Z,9.94
2023-01-08T12:43:00.038Z,9.82
2023-01-08T12:43:48.637Z,9.76
2023-01-08T12:44:47.619Z,9.79
2023-01-08T12:45:47.692Z,9.76
2023-01-08T12:46:47.601Z,9.84
2023-01-08T12:47:47.586Z,9.80
2023-01-08T12:48:47.565Z,9.76
2023-01-08T12:49:47.583Z,9.79
2023-01-08T12:50:47.545Z,9.83
2023-01-08T12:51:47.536Z,9.76
2023-01-08T12:52:47.537Z,9.83
2023-01-08T12:53:47.522Z,9.80
2023-01-08T12:54:47.511Z,9.83
2023-01-08T12:55:47.489Z,9.76
2023-01-08T12:56:47.492Z,9.76
2023-01-08T12:57:47.468Z,9.76
2023-01-08T12:58:47.457Z,9.82
2023-01-08T12:59:47.466Z,9.79
2023-01-08T13:00:47.461Z,9.80
2023-01-08T13:01:47.569Z,9.82
2023-01-08T13:02:47.533Z,9.76
2023-01-08T13:03:49.100Z,9.77
2023-01-08T13:04:47.388Z,9.82
2023-01-08T13:05:47.407Z,9.77
2023-01-08T13:06:47.378Z,9.76
2023-01-08T13:07:47.359Z,9.76
2023-01-08T13:08:47.357Z,9.72
2023-01-08T13:09:47.345Z,9.73
2023-01-08T13:10:47.333Z,9.69
2023-01-08T13:11:47.329Z,9.66
2023-01-08T13:12:47.311Z,9.74
2023-01-08T13:13:47.292Z,9.65
2023-01-08T13:14:47.305Z,9.64
2023-01-08T13:15:47.269Z,9.66
2023-01-08T13:16:47.409Z,9.73
2023-01-08T13:17:47.300Z,9.79
2023-01-08T13:18:47.247Z,9.77